This is the latest recevied weather packets stored in our database for station/object N8WEL. If no packets are shown the sender has not sent any weather packets the latest 10 day(s).
| Time | Temp. | Humidity | Pressure | Rain* | Wind** | Luminosity | Snow |
|---|---|---|---|---|---|---|---|
| 1777773472 | 2.22° C | 77% | 1016.6 hPa | 0 mm | - | - | - |
| 1777773116 | 2.78° C | 76% | 1016.6 hPa | 0 mm | - | - | - |
| 1777772849 | 2.78° C | 74% | 1016.6 hPa | 0 mm | - | - | - |
| 1777772597 | 3.33° C | 73% | 1016.4 hPa | 0 mm | - | - | - |
| 1777772136 | 3.89° C | 72% | 1016.5 hPa | 0 mm | - | - | - |
| 1777771821 | 3.89° C | 69% | 1016.4 hPa | 0 mm | - | - | - |
| 1777771020 | 4.44° C | 66% | 1016.3 hPa | 0 mm | - | - | - |
| 1777770717 | 5° C | 62% | 1016.2 hPa | 0 mm | - | - | - |
| 1777770599 | 5.56° C | 60% | 1016.3 hPa | 0 mm | - | - | - |
| 1777770183 | 6.11° C | 57% | 1016.3 hPa | 0 mm | - | - | - |
| 1777769766 | 6.11° C | 56% | 1016.1 hPa | 0 mm | - | - | - |
| 1777769697 | 6.67° C | 55% | 1016.1 hPa | 0 mm | - | - | - |
| 1777769359 | 6.67° C | 54% | 1016.1 hPa | 0 mm | - | - | - |
| 1777769131 | 6.67° C | 54% | 1016.1 hPa | 0 mm | - | - | - |
| 1777768581 | 7.22° C | 51% | 1016 hPa | 0 mm | - | - | - |
| 1777768581 | 7.22° C | 52% | 1016 hPa | 0 mm | - | - | - |
| 1777767664 | 7.22° C | 51% | 1016 hPa | 0 mm | - | - | - |
| 1777767372 | 7.22° C | 52% | 1016 hPa | 0 mm | - | - | - |
| 1777767371 | 7.22° C | 51% | 1015.9 hPa | 0 mm | - | - | - |
| 1777766757 | 7.22° C | 51% | 1015.9 hPa | 0 mm | - | - | - |
| 1777766650 | 7.78° C | 50% | 1015.9 hPa | 0 mm | - | - | - |
| 1777766308 | 7.78° C | 50% | 1015.9 hPa | 0 mm | - | - | - |
| 1777766307 | 7.78° C | 50% | 1015.9 hPa | 0 mm | - | - | - |
| 1777765534 | 7.78° C | 49% | 1015.8 hPa | 0 mm | - | - | - |
| 1777765171 | 7.78° C | 50% | 1015.8 hPa | 0 mm | - | - | - |
* Rain latest hour (hover to see other rain measurements)
** Current wind speed in m/s (hover to see current wind gust speed)